sensor_id;sensor_type;location;lat;lon;timestamp;P1;durP1;ratioP1;P2;durP2;ratioP2
15665;SDS011;20725;51.196;3.510;2023-04-16T00:02:27;7.87;;;3.50;;
15665;SDS011;20725;51.196;3.510;2023-04-16T00:04:54;12.23;;;4.07;;
15665;SDS011;20725;51.196;3.510;2023-04-16T00:07:22;7.63;;;4.00;;
15665;SDS011;20725;51.196;3.510;2023-04-16T00:09:49;8.03;;;4.03;;
15665;SDS011;20725;51.196;3.510;2023-04-16T00:12:16;9.40;;;4.30;;
15665;SDS011;20725;51.196;3.510;2023-04-16T00:14:45;10.50;;;4.33;;
15665;SDS011;20725;51.196;3.510;2023-04-16T00:17:13;12.83;;;4.53;;
15665;SDS011;20725;51.196;3.510;2023-04-16T00:19:40;8.93;;;4.10;;
15665;SDS011;20725;51.196;3.510;2023-04-16T00:22:07;6.00;;;3.83;;
15665;SDS011;20725;51.196;3.510;2023-04-16T00:24:34;8.23;;;4.10;;
15665;SDS011;20725;51.196;3.510;2023-04-16T00:27:01;8.80;;;4.00;;
15665;SDS011;20725;51.196;3.510;2023-04-16T00:29:29;8.80;;;4.20;;
15665;SDS011;20725;51.196;3.510;2023-04-16T00:31:59;9.60;;;3.90;;
15665;SDS011;20725;51.196;3.510;2023-04-16T00:34:26;11.93;;;4.20;;
15665;SDS011;20725;51.196;3.510;2023-04-16T00:36:53;9.97;;;3.77;;
15665;SDS011;20725;51.196;3.510;2023-04-16T00:39:20;9.17;;;3.83;;
15665;SDS011;20725;51.196;3.510;2023-04-16T00:41:48;10.40;;;4.20;;
15665;SDS011;20725;51.196;3.510;2023-04-16T00:44:15;10.43;;;3.87;;
15665;SDS011;20725;51.196;3.510;2023-04-16T00:46:42;13.47;;;3.37;;
15665;SDS011;20725;51.196;3.510;2023-04-16T00:49:11;10.10;;;2.90;;
15665;SDS011;20725;51.196;3.510;2023-04-16T00:51:38;12.83;;;3.37;;
15665;SDS011;20725;51.196;3.510;2023-04-16T00:54:05;6.87;;;2.93;;
15665;SDS011;20725;51.196;3.510;2023-04-16T00:56:33;12.40;;;3.00;;
15665;SDS011;20725;51.196;3.510;2023-04-16T00:59:01;6.20;;;2.80;;
15665;SDS011;20725;51.196;3.510;2023-04-16T01:04:04;12.33;;;3.00;;
15665;SDS011;20725;51.196;3.510;2023-04-16T01:06:33;7.13;;;3.13;;
15665;SDS011;20725;51.196;3.510;2023-04-16T01:09:00;7.57;;;3.23;;
15665;SDS011;20725;51.196;3.510;2023-04-16T01:11:27;8.60;;;3.03;;
15665;SDS011;20725;51.196;3.510;2023-04-16T01:13:55;9.97;;;3.00;;
15665;SDS011;20725;51.196;3.510;2023-04-16T01:16:22;8.37;;;3.17;;
15665;SDS011;20725;51.196;3.510;2023-04-16T01:18:50;8.17;;;3.00;;
15665;SDS011;20725;51.196;3.510;2023-04-16T01:21:19;7.30;;;3.10;;
15665;SDS011;20725;51.196;3.510;2023-04-16T01:23:46;6.83;;;3.00;;
15665;SDS011;20725;51.196;3.510;2023-04-16T01:26:13;8.63;;;3.47;;
15665;SDS011;20725;51.196;3.510;2023-04-16T01:28:40;9.70;;;2.90;;
15665;SDS011;20725;51.196;3.510;2023-04-16T01:31:08;10.13;;;3.00;;
15665;SDS011;20725;51.196;3.510;2023-04-16T01:33:35;5.43;;;2.80;;
15665;SDS011;20725;51.196;3.510;2023-04-16T01:36:02;14.60;;;2.90;;
15665;SDS011;20725;51.196;3.510;2023-04-16T01:38:31;8.33;;;3.03;;
15665;SDS011;20725;51.196;3.510;2023-04-16T01:40:58;5.37;;;3.00;;
15665;SDS011;20725;51.196;3.510;2023-04-16T01:43:26;6.57;;;2.67;;
15665;SDS011;20725;51.196;3.510;2023-04-16T01:45:53;6.87;;;3.03;;
15665;SDS011;20725;51.196;3.510;2023-04-16T01:48:24;8.63;;;2.63;;
15665;SDS011;20725;51.196;3.510;2023-04-16T01:50:52;6.17;;;2.43;;
15665;SDS011;20725;51.196;3.510;2023-04-16T01:53:19;7.33;;;2.30;;
15665;SDS011;20725;51.196;3.510;2023-04-16T01:55:47;4.10;;;2.00;;
15665;SDS011;20725;51.196;3.510;2023-04-16T01:58:14;8.97;;;2.50;;
15665;SDS011;20725;51.196;3.510;2023-04-16T02:00:42;6.73;;;2.47;;
15665;SDS011;20725;51.196;3.510;2023-04-16T02:03:09;7.30;;;2.30;;
15665;SDS011;20725;51.196;3.510;2023-04-16T02:05:36;5.07;;;2.60;;
15665;SDS011;20725;51.196;3.510;2023-04-16T02:08:03;6.63;;;2.40;;
15665;SDS011;20725;51.196;3.510;2023-04-16T02:10:31;4.20;;;2.77;;
15665;SDS011;20725;51.196;3.510;2023-04-16T02:12:59;8.63;;;2.70;;
15665;SDS011;20725;51.196;3.510;2023-04-16T02:15:27;3.90;;;2.10;;
15665;SDS011;20725;51.196;3.510;2023-04-16T02:17:54;3.43;;;2.23;;
15665;SDS011;20725;51.196;3.510;2023-04-16T02:20:21;7.83;;;2.50;;
15665;SDS011;20725;51.196;3.510;2023-04-16T02:22:48;8.13;;;2.57;;
15665;SDS011;20725;51.196;3.510;2023-04-16T02:25:15;9.17;;;2.30;;
15665;SDS011;20725;51.196;3.510;2023-04-16T02:27:42;2.37;;;2.13;;
15665;SDS011;20725;51.196;3.510;2023-04-16T02:30:11;6.63;;;2.90;;
15665;SDS011;20725;51.196;3.510;2023-04-16T02:32:38;4.93;;;2.50;;
15665;SDS011;20725;51.196;3.510;2023-04-16T02:35:06;4.93;;;2.33;;
15665;SDS011;20725;51.196;3.510;2023-04-16T02:37:33;12.03;;;3.20;;
15665;SDS011;20725;51.196;3.510;2023-04-16T02:40:00;6.43;;;2.50;;
15665;SDS011;20725;51.196;3.510;2023-04-16T02:42:28;10.03;;;3.03;;
15665;SDS011;20725;51.196;3.510;2023-04-16T02:44:55;6.10;;;2.20;;
15665;SDS011;20725;51.196;3.510;2023-04-16T02:47:23;4.50;;;2.50;;
15665;SDS011;20725;51.196;3.510;2023-04-16T02:49:51;10.13;;;2.70;;
15665;SDS011;20725;51.196;3.510;2023-04-16T02:52:18;9.63;;;2.80;;
15665;SDS011;20725;51.196;3.510;2023-04-16T02:54:45;6.33;;;2.60;;
15665;SDS011;20725;51.196;3.510;2023-04-16T02:57:12;9.03;;;2.70;;
15665;SDS011;20725;51.196;3.510;2023-04-16T02:59:40;8.30;;;2.80;;
15665;SDS011;20725;51.196;3.510;2023-04-16T03:02:07;11.43;;;2.90;;
15665;SDS011;20725;51.196;3.510;2023-04-16T03:04:35;3.07;;;2.47;;
15665;SDS011;20725;51.196;3.510;2023-04-16T03:07:03;8.40;;;2.97;;
15665;SDS011;20725;51.196;3.510;2023-04-16T03:09:30;6.37;;;2.40;;
15665;SDS011;20725;51.196;3.510;2023-04-16T03:11:57;6.30;;;2.63;;
15665;SDS011;20725;51.196;3.510;2023-04-16T03:14:25;6.67;;;2.93;;
15665;SDS011;20725;51.196;3.510;2023-04-16T03:16:52;6.00;;;3.17;;
15665;SDS011;20725;51.196;3.510;2023-04-16T03:19:20;8.30;;;2.93;;
15665;SDS011;20725;51.196;3.510;2023-04-16T03:21:48;5.00;;;2.97;;
15665;SDS011;20725;51.196;3.510;2023-04-16T03:24:15;10.37;;;3.03;;
15665;SDS011;20725;51.196;3.510;2023-04-16T03:26:43;6.87;;;2.83;;
15665;SDS011;20725;51.196;3.510;2023-04-16T03:29:10;6.07;;;2.90;;
15665;SDS011;20725;51.196;3.510;2023-04-16T03:31:37;8.90;;;2.80;;
15665;SDS011;20725;51.196;3.510;2023-04-16T03:34:05;6.50;;;2.80;;
15665;SDS011;20725;51.196;3.510;2023-04-16T03:36:32;3.80;;;2.63;;
15665;SDS011;20725;51.196;3.510;2023-04-16T03:39:01;6.07;;;2.97;;
15665;SDS011;20725;51.196;3.510;2023-04-16T03:41:28;6.50;;;2.63;;
15665;SDS011;20725;51.196;3.510;2023-04-16T03:43:55;8.63;;;2.70;;
15665;SDS011;20725;51.196;3.510;2023-04-16T03:46:22;6.20;;;2.77;;
15665;SDS011;20725;51.196;3.510;2023-04-16T03:48:50;5.23;;;2.90;;
15665;SDS011;20725;51.196;3.510;2023-04-16T03:51:17;6.63;;;3.03;;
15665;SDS011;20725;51.196;3.510;2023-04-16T03:53:44;7.00;;;2.70;;
15665;SDS011;20725;51.196;3.510;2023-04-16T03:56:13;3.30;;;2.30;;
15665;SDS011;20725;51.196;3.510;2023-04-16T03:58:40;6.67;;;2.83;;
15665;SDS011;20725;51.196;3.510;2023-04-16T04:01:07;8.43;;;2.73;;
15665;SDS011;20725;51.196;3.510;2023-04-16T04:03:34;5.87;;;3.00;;
15665;SDS011;20725;51.196;3.510;2023-04-16T04:06:05;6.37;;;3.30;;
15665;SDS011;20725;51.196;3.510;2023-04-16T04:08:32;4.00;;;2.67;;
15665;SDS011;20725;51.196;3.510;2023-04-16T04:10:59;8.80;;;3.20;;
15665;SDS011;20725;51.196;3.510;2023-04-16T04:13:28;6.77;;;3.50;;
15665;SDS011;20725;51.196;3.510;2023-04-16T04:15:55;10.90;;;3.57;;
15665;SDS011;20725;51.196;3.510;2023-04-16T04:18:22;11.80;;;3.30;;
15665;SDS011;20725;51.196;3.510;2023-04-16T04:20:50;10.37;;;3.37;;
15665;SDS011;20725;51.196;3.510;2023-04-16T04:23:17;4.67;;;2.80;;
15665;SDS011;20725;51.196;3.510;2023-04-16T04:25:45;10.17;;;3.03;;
15665;SDS011;20725;51.196;3.510;2023-04-16T04:28:12;4.57;;;2.90;;
15665;SDS011;20725;51.196;3.510;2023-04-16T04:30:41;5.00;;;2.63;;
15665;SDS011;20725;51.196;3.510;2023-04-16T04:33:08;5.20;;;2.43;;
15665;SDS011;20725;51.196;3.510;2023-04-16T04:35:35;9.60;;;2.70;;
15665;SDS011;20725;51.196;3.510;2023-04-16T04:38:03;3.33;;;2.57;;
15665;SDS011;20725;51.196;3.510;2023-04-16T04:40:31;3.93;;;2.53;;
15665;SDS011;20725;51.196;3.510;2023-04-16T04:42:58;7.30;;;3.37;;
15665;SDS011;20725;51.196;3.510;2023-04-16T04:45:25;5.30;;;2.30;;
15665;SDS011;20725;51.196;3.510;2023-04-16T04:47:54;5.40;;;2.80;;
15665;SDS011;20725;51.196;3.510;2023-04-16T04:50:21;9.07;;;3.40;;
15665;SDS011;20725;51.196;3.510;2023-04-16T04:52:48;3.53;;;2.57;;
15665;SDS011;20725;51.196;3.510;2023-04-16T04:55:15;8.77;;;2.80;;
15665;SDS011;20725;51.196;3.510;2023-04-16T04:57:43;7.93;;;3.13;;
15665;SDS011;20725;51.196;3.510;2023-04-16T05:00:10;6.37;;;3.20;;
15665;SDS011;20725;51.196;3.510;2023-04-16T05:02:37;10.00;;;2.80;;
15665;SDS011;20725;51.196;3.510;2023-04-16T05:05:06;9.53;;;2.77;;
15665;SDS011;20725;51.196;3.510;2023-04-16T05:07:34;9.87;;;3.37;;
15665;SDS011;20725;51.196;3.510;2023-04-16T05:10:01;14.87;;;3.30;;
15665;SDS011;20725;51.196;3.510;2023-04-16T05:12:28;4.37;;;2.20;;
15665;SDS011;20725;51.196;3.510;2023-04-16T05:14:55;5.03;;;2.80;;
15665;SDS011;20725;51.196;3.510;2023-04-16T05:17:22;5.13;;;2.43;;
15665;SDS011;20725;51.196;3.510;2023-04-16T05:19:50;4.67;;;2.50;;
15665;SDS011;20725;51.196;3.510;2023-04-16T05:22:19;9.83;;;3.20;;
15665;SDS011;20725;51.196;3.510;2023-04-16T05:24:46;6.30;;;2.47;;
15665;SDS011;20725;51.196;3.510;2023-04-16T05:27:14;4.93;;;2.73;;
15665;SDS011;20725;51.196;3.510;2023-04-16T05:29:41;9.57;;;2.90;;
15665;SDS011;20725;51.196;3.510;2023-04-16T05:32:08;3.17;;;2.37;;
15665;SDS011;20725;51.196;3.510;2023-04-16T05:34:35;4.67;;;2.60;;
15665;SDS011;20725;51.196;3.510;2023-04-16T05:37:02;4.00;;;2.60;;
15665;SDS011;20725;51.196;3.510;2023-04-16T05:39:31;5.60;;;2.13;;
15665;SDS011;20725;51.196;3.510;2023-04-16T05:41:58;5.50;;;2.83;;
15665;SDS011;20725;51.196;3.510;2023-04-16T05:44:26;5.93;;;2.60;;
15665;SDS011;20725;51.196;3.510;2023-04-16T05:46:53;7.77;;;2.43;;
15665;SDS011;20725;51.196;3.510;2023-04-16T05:49:20;7.07;;;2.43;;
15665;SDS011;20725;51.196;3.510;2023-04-16T05:51:47;10.13;;;2.70;;
15665;SDS011;20725;51.196;3.510;2023-04-16T05:54:14;3.87;;;2.17;;
15665;SDS011;20725;51.196;3.510;2023-04-16T05:56:43;4.13;;;2.30;;
15665;SDS011;20725;51.196;3.510;2023-04-16T05:59:10;3.97;;;2.60;;
15665;SDS011;20725;51.196;3.510;2023-04-16T06:01:37;5.77;;;2.40;;
15665;SDS011;20725;51.196;3.510;2023-04-16T06:04:04;4.27;;;2.30;;
15665;SDS011;20725;51.196;3.510;2023-04-16T06:06:32;4.87;;;2.40;;
15665;SDS011;20725;51.196;3.510;2023-04-16T06:09:01;5.13;;;2.20;;
15665;SDS011;20725;51.196;3.510;2023-04-16T06:11:28;4.90;;;2.33;;
15665;SDS011;20725;51.196;3.510;2023-04-16T06:13:57;4.70;;;2.77;;
15665;SDS011;20725;51.196;3.510;2023-04-16T06:16:24;4.37;;;2.50;;
15665;SDS011;20725;51.196;3.510;2023-04-16T06:18:51;3.33;;;2.20;;
15665;SDS011;20725;51.196;3.510;2023-04-16T06:21:18;7.57;;;3.03;;
15665;SDS011;20725;51.196;3.510;2023-04-16T06:23:45;5.80;;;2.30;;
15665;SDS011;20725;51.196;3.510;2023-04-16T06:26:13;6.27;;;2.30;;
15665;SDS011;20725;51.196;3.510;2023-04-16T06:28:40;3.80;;;2.10;;
15665;SDS011;20725;51.196;3.510;2023-04-16T06:31:08;5.70;;;2.60;;
15665;SDS011;20725;51.196;3.510;2023-04-16T06:33:36;6.27;;;2.50;;
15665;SDS011;20725;51.196;3.510;2023-04-16T06:36:03;10.40;;;2.80;;
15665;SDS011;20725;51.196;3.510;2023-04-16T06:38:30;2.50;;;2.30;;
15665;SDS011;20725;51.196;3.510;2023-04-16T06:40:57;5.33;;;2.67;;
15665;SDS011;20725;51.196;3.510;2023-04-16T06:43:24;6.43;;;2.90;;
15665;SDS011;20725;51.196;3.510;2023-04-16T06:45:52;5.33;;;2.37;;
15665;SDS011;20725;51.196;3.510;2023-04-16T06:48:20;4.73;;;2.13;;
15665;SDS011;20725;51.196;3.510;2023-04-16T06:50:47;5.60;;;2.23;;
15665;SDS011;20725;51.196;3.510;2023-04-16T06:53:15;3.57;;;2.00;;
15665;SDS011;20725;51.196;3.510;2023-04-16T06:55:42;4.33;;;1.93;;
15665;SDS011;20725;51.196;3.510;2023-04-16T06:58:09;4.30;;;2.10;;
15665;SDS011;20725;51.196;3.510;2023-04-16T07:00:36;3.37;;;1.73;;
15665;SDS011;20725;51.196;3.510;2023-04-16T07:03:03;4.67;;;2.00;;
15665;SDS011;20725;51.196;3.510;2023-04-16T07:05:32;6.47;;;2.40;;
15665;SDS011;20725;51.196;3.510;2023-04-16T07:07:59;5.80;;;2.30;;
15665;SDS011;20725;51.196;3.510;2023-04-16T07:10:26;5.63;;;2.40;;
15665;SDS011;20725;51.196;3.510;2023-04-16T07:12:53;4.03;;;2.27;;
15665;SDS011;20725;51.196;3.510;2023-04-16T07:15:21;4.50;;;2.20;;
15665;SDS011;20725;51.196;3.510;2023-04-16T07:17:48;2.80;;;1.97;;
15665;SDS011;20725;51.196;3.510;2023-04-16T07:20:15;6.23;;;2.10;;
15665;SDS011;20725;51.196;3.510;2023-04-16T07:22:44;3.50;;;2.10;;
15665;SDS011;20725;51.196;3.510;2023-04-16T07:25:11;4.50;;;1.80;;
15665;SDS011;20725;51.196;3.510;2023-04-16T07:27:38;11.60;;;2.60;;
15665;SDS011;20725;51.196;3.510;2023-04-16T07:30:06;3.77;;;1.90;;
15665;SDS011;20725;51.196;3.510;2023-04-16T07:32:33;7.27;;;1.80;;
15665;SDS011;20725;51.196;3.510;2023-04-16T07:35:00;3.47;;;2.03;;
15665;SDS011;20725;51.196;3.510;2023-04-16T07:37:28;7.10;;;2.10;;
15665;SDS011;20725;51.196;3.510;2023-04-16T07:39:57;5.70;;;2.67;;
15665;SDS011;20725;51.196;3.510;2023-04-16T07:42:25;6.43;;;2.00;;
15665;SDS011;20725;51.196;3.510;2023-04-16T07:44:53;3.70;;;2.00;;
15665;SDS011;20725;51.196;3.510;2023-04-16T07:47:20;5.17;;;2.00;;
15665;SDS011;20725;51.196;3.510;2023-04-16T07:49:50;5.27;;;1.93;;
15665;SDS011;20725;51.196;3.510;2023-04-16T07:52:17;7.63;;;2.23;;
15665;SDS011;20725;51.196;3.510;2023-04-16T07:54:44;5.83;;;2.00;;
15665;SDS011;20725;51.196;3.510;2023-04-16T07:57:13;4.10;;;2.20;;
15665;SDS011;20725;51.196;3.510;2023-04-16T07:59:40;6.37;;;2.30;;
15665;SDS011;20725;51.196;3.510;2023-04-16T08:02:08;8.13;;;2.40;;
15665;SDS011;20725;51.196;3.510;2023-04-16T08:04:35;13.40;;;2.77;;
15665;SDS011;20725;51.196;3.510;2023-04-16T08:07:03;8.97;;;2.23;;
15665;SDS011;20725;51.196;3.510;2023-04-16T08:09:30;6.43;;;3.00;;
15665;SDS011;20725;51.196;3.510;2023-04-16T08:11:58;9.53;;;2.60;;
15665;SDS011;20725;51.196;3.510;2023-04-16T08:14:27;6.23;;;2.57;;
15665;SDS011;20725;51.196;3.510;2023-04-16T08:16:54;8.33;;;2.77;;
15665;SDS011;20725;51.196;3.510;2023-04-16T08:19:22;4.70;;;2.20;;
15665;SDS011;20725;51.196;3.510;2023-04-16T08:21:49;4.07;;;2.30;;
15665;SDS011;20725;51.196;3.510;2023-04-16T08:24:16;7.13;;;2.50;;
15665;SDS011;20725;51.196;3.510;2023-04-16T08:26:43;3.80;;;2.23;;
15665;SDS011;20725;51.196;3.510;2023-04-16T08:29:10;5.13;;;2.00;;
15665;SDS011;20725;51.196;3.510;2023-04-16T08:31:39;5.03;;;2.07;;
15665;SDS011;20725;51.196;3.510;2023-04-16T08:34:06;4.57;;;1.97;;
15665;SDS011;20725;51.196;3.510;2023-04-16T08:36:35;3.50;;;2.07;;
15665;SDS011;20725;51.196;3.510;2023-04-16T08:39:02;5.87;;;2.13;;
15665;SDS011;20725;51.196;3.510;2023-04-16T08:41:30;3.17;;;1.90;;
15665;SDS011;20725;51.196;3.510;2023-04-16T08:43:58;3.50;;;1.87;;
15665;SDS011;20725;51.196;3.510;2023-04-16T08:46:26;5.00;;;1.90;;
15665;SDS011;20725;51.196;3.510;2023-04-16T08:48:55;3.57;;;1.93;;
15665;SDS011;20725;51.196;3.510;2023-04-16T08:51:25;3.83;;;1.93;;
15665;SDS011;20725;51.196;3.510;2023-04-16T08:53:57;7.63;;;2.00;;
15665;SDS011;20725;51.196;3.510;2023-04-16T08:56:25;3.70;;;1.93;;
15665;SDS011;20725;51.196;3.510;2023-04-16T08:58:53;5.00;;;1.87;;
15665;SDS011;20725;51.196;3.510;2023-04-16T09:01:22;3.97;;;2.23;;
15665;SDS011;20725;51.196;3.510;2023-04-16T09:03:50;4.93;;;1.90;;
15665;SDS011;20725;51.196;3.510;2023-04-16T09:06:19;7.50;;;1.90;;
15665;SDS011;20725;51.196;3.510;2023-04-16T09:08:47;6.33;;;2.27;;
15665;SDS011;20725;51.196;3.510;2023-04-16T09:11:15;3.73;;;2.00;;
15665;SDS011;20725;51.196;3.510;2023-04-16T09:13:43;3.97;;;1.97;;
15665;SDS011;20725;51.196;3.510;2023-04-16T09:16:11;8.20;;;2.30;;
15665;SDS011;20725;51.196;3.510;2023-04-16T09:18:39;5.23;;;2.00;;
15665;SDS011;20725;51.196;3.510;2023-04-16T09:21:06;4.37;;;2.20;;
15665;SDS011;20725;51.196;3.510;2023-04-16T09:23:37;5.67;;;2.17;;
15665;SDS011;20725;51.196;3.510;2023-04-16T09:26:04;4.97;;;2.50;;
15665;SDS011;20725;51.196;3.510;2023-04-16T09:28:38;6.03;;;2.53;;
15665;SDS011;20725;51.196;3.510;2023-04-16T09:31:09;7.20;;;2.20;;
15665;SDS011;20725;51.196;3.510;2023-04-16T09:33:36;3.27;;;2.00;;
15665;SDS011;20725;51.196;3.510;2023-04-16T09:36:04;3.80;;;2.20;;
15665;SDS011;20725;51.196;3.510;2023-04-16T09:38:49;4.03;;;2.03;;
15665;SDS011;20725;51.196;3.510;2023-04-16T09:41:16;2.20;;;1.60;;
15665;SDS011;20725;51.196;3.510;2023-04-16T09:43:48;7.93;;;2.00;;
15665;SDS011;20725;51.196;3.510;2023-04-16T09:46:20;3.73;;;1.80;;
15665;SDS011;20725;51.196;3.510;2023-04-16T09:48:48;2.53;;;1.63;;
15665;SDS011;20725;51.196;3.510;2023-04-16T09:51:15;3.60;;;1.97;;
15665;SDS011;20725;51.196;3.510;2023-04-16T09:53:42;2.80;;;1.87;;
15665;SDS011;20725;51.196;3.510;2023-04-16T09:56:11;5.67;;;2.27;;
15665;SDS011;20725;51.196;3.510;2023-04-16T09:58:38;7.23;;;2.80;;
15665;SDS011;20725;51.196;3.510;2023-04-16T10:01:07;3.17;;;2.00;;
15665;SDS011;20725;51.196;3.510;2023-04-16T10:03:34;6.23;;;2.03;;
15665;SDS011;20725;51.196;3.510;2023-04-16T10:06:06;5.30;;;2.30;;
15665;SDS011;20725;51.196;3.510;2023-04-16T10:08:33;5.60;;;2.10;;
15665;SDS011;20725;51.196;3.510;2023-04-16T10:11:01;6.00;;;2.17;;
15665;SDS011;20725;51.196;3.510;2023-04-16T10:13:29;3.17;;;1.87;;
15665;SDS011;20725;51.196;3.510;2023-04-16T10:15:56;4.97;;;2.00;;
15665;SDS011;20725;51.196;3.510;2023-04-16T10:18:24;5.87;;;2.33;;
15665;SDS011;20725;51.196;3.510;2023-04-16T10:20:51;7.20;;;2.43;;
15665;SDS011;20725;51.196;3.510;2023-04-16T10:23:19;3.17;;;1.90;;
15665;SDS011;20725;51.196;3.510;2023-04-16T10:25:46;5.50;;;2.30;;
15665;SDS011;20725;51.196;3.510;2023-04-16T10:28:14;3.60;;;1.90;;
15665;SDS011;20725;51.196;3.510;2023-04-16T10:30:43;4.77;;;2.03;;
15665;SDS011;20725;51.196;3.510;2023-04-16T10:33:17;3.83;;;1.93;;
15665;SDS011;20725;51.196;3.510;2023-04-16T10:35:46;3.30;;;1.80;;
15665;SDS011;20725;51.196;3.510;2023-04-16T10:38:26;4.87;;;1.80;;
15665;SDS011;20725;51.196;3.510;2023-04-16T10:41:00;2.83;;;1.93;;
15665;SDS011;20725;51.196;3.510;2023-04-16T10:43:28;1.83;;;1.53;;
15665;SDS011;20725;51.196;3.510;2023-04-16T10:46:00;4.67;;;1.43;;
15665;SDS011;20725;51.196;3.510;2023-04-16T10:48:43;3.47;;;2.00;;
15665;SDS011;20725;51.196;3.510;2023-04-16T10:51:21;2.97;;;1.60;;
15665;SDS011;20725;51.196;3.510;2023-04-16T10:53:49;2.40;;;1.30;;
15665;SDS011;20725;51.196;3.510;2023-04-16T10:56:21;5.17;;;1.80;;
15665;SDS011;20725;51.196;3.510;2023-04-16T10:58:48;1.93;;;1.53;;
15665;SDS011;20725;51.196;3.510;2023-04-16T11:01:17;6.33;;;2.40;;
15665;SDS011;20725;51.196;3.510;2023-04-16T11:03:45;3.97;;;2.03;;
15665;SDS011;20725;51.196;3.510;2023-04-16T11:06:13;3.73;;;2.07;;
15665;SDS011;20725;51.196;3.510;2023-04-16T11:08:42;4.70;;;2.10;;
15665;SDS011;20725;51.196;3.510;2023-04-16T11:11:11;5.60;;;1.90;;
15665;SDS011;20725;51.196;3.510;2023-04-16T11:13:40;5.07;;;2.20;;
15665;SDS011;20725;51.196;3.510;2023-04-16T11:16:09;4.30;;;2.70;;
15665;SDS011;20725;51.196;3.510;2023-04-16T11:18:38;3.83;;;2.20;;
15665;SDS011;20725;51.196;3.510;2023-04-16T11:21:06;4.30;;;2.03;;
15665;SDS011;20725;51.196;3.510;2023-04-16T11:23:44;7.00;;;2.07;;
15665;SDS011;20725;51.196;3.510;2023-04-16T11:26:18;3.50;;;2.17;;
15665;SDS011;20725;51.196;3.510;2023-04-16T11:28:45;4.33;;;2.20;;
15665;SDS011;20725;51.196;3.510;2023-04-16T11:31:13;4.37;;;2.30;;
15665;SDS011;20725;51.196;3.510;2023-04-16T11:33:42;5.43;;;2.50;;
15665;SDS011;20725;51.196;3.510;2023-04-16T11:36:09;7.47;;;2.33;;
15665;SDS011;20725;51.196;3.510;2023-04-16T11:38:37;3.40;;;2.10;;
15665;SDS011;20725;51.196;3.510;2023-04-16T11:41:07;6.30;;;2.63;;
15665;SDS011;20725;51.196;3.510;2023-04-16T11:43:34;3.27;;;2.00;;
15665;SDS011;20725;51.196;3.510;2023-04-16T11:46:02;3.00;;;2.03;;
15665;SDS011;20725;51.196;3.510;2023-04-16T11:48:47;4.23;;;1.87;;
15665;SDS011;20725;51.196;3.510;2023-04-16T11:51:14;3.97;;;1.93;;
15665;SDS011;20725;51.196;3.510;2023-04-16T11:53:45;7.57;;;2.40;;
15665;SDS011;20725;51.196;3.510;2023-04-16T11:56:13;5.55;;;2.03;;
15665;SDS011;20725;51.196;3.510;2023-04-16T11:58:41;3.50;;;1.85;;
15665;SDS011;20725;51.196;3.510;2023-04-16T12:01:09;3.93;;;2.00;;
15665;SDS011;20725;51.196;3.510;2023-04-16T12:03:38;3.33;;;1.70;;
15665;SDS011;20725;51.196;3.510;2023-04-16T12:06:08;2.95;;;1.75;;
15665;SDS011;20725;51.196;3.510;2023-04-16T12:08:36;3.28;;;1.80;;
15665;SDS011;20725;51.196;3.510;2023-04-16T12:11:03;3.88;;;1.80;;
15665;SDS011;20725;51.196;3.510;2023-04-16T12:13:30;4.05;;;1.92;;
15665;SDS011;20725;51.196;3.510;2023-04-16T12:16:06;4.13;;;2.33;;
15665;SDS011;20725;51.196;3.510;2023-04-16T12:18:57;4.03;;;1.93;;
15665;SDS011;20725;51.196;3.510;2023-04-16T12:21:35;4.83;;;2.23;;
15665;SDS011;20725;51.196;3.510;2023-04-16T12:24:03;6.17;;;2.30;;
15665;SDS011;20725;51.196;3.510;2023-04-16T12:26:37;5.07;;;2.17;;
15665;SDS011;20725;51.196;3.510;2023-04-16T12:29:14;5.00;;;2.50;;
15665;SDS011;20725;51.196;3.510;2023-04-16T12:31:41;2.15;;;1.67;;
15665;SDS011;20725;51.196;3.510;2023-04-16T12:34:08;3.72;;;2.05;;
15665;SDS011;20725;51.196;3.510;2023-04-16T12:36:37;3.83;;;2.38;;
15665;SDS011;20725;51.196;3.510;2023-04-16T12:39:04;3.60;;;1.95;;
15665;SDS011;20725;51.196;3.510;2023-04-16T12:41:33;5.20;;;2.28;;
15665;SDS011;20725;51.196;3.510;2023-04-16T12:44:04;4.35;;;2.10;;
15665;SDS011;20725;51.196;3.510;2023-04-16T12:46:33;3.80;;;1.95;;
15665;SDS011;20725;51.196;3.510;2023-04-16T12:49:00;4.65;;;1.90;;
15665;SDS011;20725;51.196;3.510;2023-04-16T12:51:28;4.07;;;1.75;;
15665;SDS011;20725;51.196;3.510;2023-04-16T12:53:56;5.22;;;1.80;;
15665;SDS011;20725;51.196;3.510;2023-04-16T12:56:24;3.67;;;2.10;;
15665;SDS011;20725;51.196;3.510;2023-04-16T12:58:51;4.28;;;1.92;;
15665;SDS011;20725;51.196;3.510;2023-04-16T13:01:18;4.07;;;1.83;;
15665;SDS011;20725;51.196;3.510;2023-04-16T13:03:46;4.28;;;2.17;;
15665;SDS011;20725;51.196;3.510;2023-04-16T13:06:14;4.50;;;1.80;;
15665;SDS011;20725;51.196;3.510;2023-04-16T13:08:41;2.65;;;1.65;;
15665;SDS011;20725;51.196;3.510;2023-04-16T13:11:10;3.03;;;1.63;;
15665;SDS011;20725;51.196;3.510;2023-04-16T13:13:38;5.30;;;1.75;;
15665;SDS011;20725;51.196;3.510;2023-04-16T13:16:05;5.38;;;1.70;;
15665;SDS011;20725;51.196;3.510;2023-04-16T13:18:33;3.75;;;2.05;;
15665;SDS011;20725;51.196;3.510;2023-04-16T13:21:02;4.22;;;2.08;;
15665;SDS011;20725;51.196;3.510;2023-04-16T13:23:30;3.00;;;1.92;;
15665;SDS011;20725;51.196;3.510;2023-04-16T13:25:57;3.40;;;1.88;;
15665;SDS011;20725;51.196;3.510;2023-04-16T13:28:26;4.15;;;1.88;;
15665;SDS011;20725;51.196;3.510;2023-04-16T13:30:53;3.72;;;2.08;;
15665;SDS011;20725;51.196;3.510;2023-04-16T13:33:20;2.83;;;1.60;;
15665;SDS011;20725;51.196;3.510;2023-04-16T13:35:48;4.88;;;2.13;;
15665;SDS011;20725;51.196;3.510;2023-04-16T13:38:15;4.78;;;1.75;;
15665;SDS011;20725;51.196;3.510;2023-04-16T13:40:42;3.40;;;1.95;;
15665;SDS011;20725;51.196;3.510;2023-04-16T13:43:10;5.18;;;2.45;;
15665;SDS011;20725;51.196;3.510;2023-04-16T13:45:39;4.90;;;1.83;;
15665;SDS011;20725;51.196;3.510;2023-04-16T13:48:06;3.25;;;1.75;;
15665;SDS011;20725;51.196;3.510;2023-04-16T13:50:33;2.83;;;1.60;;
15665;SDS011;20725;51.196;3.510;2023-04-16T13:53:01;4.35;;;2.00;;
15665;SDS011;20725;51.196;3.510;2023-04-16T13:55:29;5.38;;;2.10;;
15665;SDS011;20725;51.196;3.510;2023-04-16T13:57:56;3.22;;;1.88;;
15665;SDS011;20725;51.196;3.510;2023-04-16T14:00:24;5.18;;;1.98;;
15665;SDS011;20725;51.196;3.510;2023-04-16T14:02:53;5.93;;;2.25;;
15665;SDS011;20725;51.196;3.510;2023-04-16T14:05:20;5.43;;;2.58;;
15665;SDS011;20725;51.196;3.510;2023-04-16T14:07:48;4.60;;;2.17;;
15665;SDS011;20725;51.196;3.510;2023-04-16T14:10:15;3.78;;;1.88;;
15665;SDS011;20725;51.196;3.510;2023-04-16T14:12:43;3.72;;;2.00;;
15665;SDS011;20725;51.196;3.510;2023-04-16T14:15:10;4.38;;;2.05;;
15665;SDS011;20725;51.196;3.510;2023-04-16T14:17:39;4.30;;;2.00;;
15665;SDS011;20725;51.196;3.510;2023-04-16T14:20:10;6.85;;;2.50;;
15665;SDS011;20725;51.196;3.510;2023-04-16T14:22:37;3.90;;;2.03;;
15665;SDS011;20725;51.196;3.510;2023-04-16T14:25:06;5.05;;;1.95;;
15665;SDS011;20725;51.196;3.510;2023-04-16T14:27:33;8.85;;;2.60;;
15665;SDS011;20725;51.196;3.510;2023-04-16T14:30:01;3.83;;;1.80;;
15665;SDS011;20725;51.196;3.510;2023-04-16T14:32:28;4.18;;;1.60;;
15665;SDS011;20725;51.196;3.510;2023-04-16T14:34:55;5.05;;;1.95;;
15665;SDS011;20725;51.196;3.510;2023-04-16T14:37:24;4.88;;;2.55;;
15665;SDS011;20725;51.196;3.510;2023-04-16T14:39:51;2.85;;;1.92;;
15665;SDS011;20725;51.196;3.510;2023-04-16T14:42:19;2.40;;;1.83;;
15665;SDS011;20725;51.196;3.510;2023-04-16T14:44:46;3.80;;;2.17;;
15665;SDS011;20725;51.196;3.510;2023-04-16T14:47:13;3.80;;;1.83;;
15665;SDS011;20725;51.196;3.510;2023-04-16T14:49:40;6.25;;;2.20;;
15665;SDS011;20725;51.196;3.510;2023-04-16T14:52:08;4.22;;;2.03;;
15665;SDS011;20725;51.196;3.510;2023-04-16T14:54:36;3.65;;;1.70;;